Portada
METAR-TAF:

METAR-TAF

Aeroports :

Košice, Eslovàquia

latitud: 48-39-47N, longitud: 021-14-28E, altitud: 232 m

Observació

L'informe es va fer fa 39 minuts, a les 15:30 UTC
Vent 4 kt del Est/Nord-Est, variant entre Nord/Nord-Oest i Est/Sud-Est
Temperatura 30°C
Humitat 29%
Pressió 1017 hPa
Visibilitat 10 km o més
sense núvols per sota de 1500 mi sense presència de cumulonimbus.

METAR: LZKZ 181530Z 06004KT 340V120 CAVOK 30/10 Q1017 NOSIG

Hora: 18:09 (16:09 UTC)

Pronòstic

L'informe es va fer fa 5 hores i 9 minuts, a les 11:00 UTC
Pronòstic vàlid del 18 a les 12 UTC al 19 a les 12 UTC
Vent 8 kt del Est/Nord-Est
Visibilitat 10 km o més
sense núvols per sota de 1500 mi sense presència de cumulonimbus.
Evolucionant progressivament
l' 18 a les 20 UTC al 18 a les 22 UTC
Vent 6 kt del Nord

TAF: LZKZ 181100Z 1812/1912 06008KT CAVOK BECMG 1820/1822 35006KT

Observacions i pronòstics meteorològics de més de 4000 aeroports (METAR i TAF).

Les estacions disponibles són els punts grocs i vermells al mapa.

Posi el ratolí al punt desitjat per veure el nom de l'estació.

Feu clic per veure les observacions i els pronòstics meteorològics.

Per canviar el mapa: feu clic els botons verds amb una creu de color negre per apropar; al botó verd amb un guió per allunyar la imatge; o en les fletxes verdes per a mapes adjacents.


METAR-TAF: